Time;durP1;ratioP1;P1;durP2;ratioP2;P2;SDS_P1;SDS_P2;PMS_P1;PMS_P2;Temp;Humidity;BMP_temperature;BMP_pressure;BME280_temperature;BME280_humidity;BME280_pressure;Samples;Min_cycle;Max_cycle;Signal;HPM_P1;HPM_P2
2022/12/11 00:00:21;;;;;;;66.28;31.45;;;;;;;1.50;100.00;101027.56;5070554;28;20408;-39
2022/12/11 00:02:46;;;;;;;59.20;31.05;;;;;;;1.53;100.00;101033.50;5070485;28;20467;-36
2022/12/11 00:05:12;;;;;;;64.75;31.50;;;;;;;1.57;100.00;101039.38;5071198;28;20486;-36
2022/12/11 00:07:37;;;;;;;64.22;31.77;;;;;;;1.56;100.00;101034.22;5053626;28;20400;-38
2022/12/11 00:10:03;;;;;;;57.90;29.30;;;;;;;1.49;100.00;101039.13;5061019;28;20263;-37
2022/12/11 00:12:29;;;;;;;58.67;29.60;;;;;;;1.45;100.00;101030.59;5070222;28;20016;-38
2022/12/11 00:14:55;;;;;;;56.42;29.50;;;;;;;1.44;100.00;101033.34;5070265;28;20033;-37
2022/12/11 00:17:20;;;;;;;56.85;29.45;;;;;;;1.42;100.00;101030.84;5070823;28;20027;-37
2022/12/11 00:19:45;;;;;;;49.28;27.15;;;;;;;1.39;100.00;101024.91;5060613;28;20025;-37
2022/12/11 00:22:11;;;;;;;53.10;26.40;;;;;;;1.42;100.00;101030.84;5050607;28;20032;-36
2022/12/11 00:24:36;;;;;;;46.67;26.00;;;;;;;1.41;100.00;101037.06;5048729;28;20098;-39
2022/12/11 00:27:01;;;;;;;52.67;25.40;;;;;;;1.37;100.00;101032.13;5052283;28;20056;-39
2022/12/11 00:29:27;;;;;;;50.88;25.70;;;;;;;1.35;100.00;101036.72;5063033;28;20032;-37
2022/12/11 00:31:52;;;;;;;48.95;26.17;;;;;;;1.35;100.00;101040.22;5050678;28;20356;-37
2022/12/11 00:34:17;;;;;;;44.53;24.63;;;;;;;1.34;100.00;101040.31;5050589;28;20174;-37
2022/12/11 00:36:43;;;;;;;46.60;25.55;;;;;;;1.31;100.00;101038.75;5052946;28;20056;-40
2022/12/11 00:39:08;;;;;;;40.17;23.45;;;;;;;1.28;100.00;101041.63;5053889;28;20028;-38
2022/12/11 00:41:33;;;;;;;45.75;24.25;;;;;;;1.24;100.00;101032.25;5070541;28;20039;-38
2022/12/11 00:43:59;;;;;;;44.83;23.05;;;;;;;1.24;100.00;101029.59;5063154;28;20505;-37
2022/12/11 00:46:24;;;;;;;51.63;25.30;;;;;;;1.24;100.00;101032.25;5070656;28;20056;-38
2022/12/11 00:48:50;;;;;;;45.30;23.33;;;;;;;1.22;100.00;101023.56;5069375;28;20013;-36
2022/12/11 00:51:16;;;;;;;41.95;22.73;;;;;;;1.23;100.00;101022.56;5070591;28;20171;-39
2022/12/11 00:53:42;;;;;;;43.55;23.40;;;;;;;1.27;100.00;101019.59;5063123;28;20112;-38
2022/12/11 00:56:09;;;;;;;45.58;23.63;;;;;;;1.33;100.00;101025.38;5063322;28;20040;-38
2022/12/11 00:58:35;;;;;;;42.83;23.73;;;;;;;1.29;100.00;101022.09;5054532;28;20368;-37
2022/12/11 01:01:09;;;;;;;43.58;23.67;;;;;;;1.27;100.00;101032.00;5064595;28;20033;-38
2022/12/11 01:03:35;;;;;;;43.42;24.15;;;;;;;1.25;100.00;101033.91;5063471;28;20029;-36
2022/12/11 01:06:00;;;;;;;44.45;24.13;;;;;;;1.20;100.00;101036.91;5054574;28;20020;-39
2022/12/11 01:08:25;;;;;;;51.65;25.40;;;;;;;1.22;100.00;101034.16;5069350;28;20491;-39
2022/12/11 01:10:51;;;;;;;48.15;24.55;;;;;;;1.21;100.00;101027.16;5050746;28;20064;-36
2022/12/11 01:13:16;;;;;;;40.47;22.77;;;;;;;1.20;100.00;101030.78;5050891;28;20513;-39
2022/12/11 01:15:43;;;;;;;53.38;23.88;;;;;;;1.27;100.00;101029.34;5049997;28;20384;-39
2022/12/11 01:18:10;;;;;;;41.37;22.77;;;;;;;1.28;100.00;101025.72;5049650;28;20395;-36
2022/12/11 01:20:38;;;;;;;42.28;23.17;;;;;;;1.26;100.00;101023.22;5050886;28;20061;-37
2022/12/11 01:23:04;;;;;;;45.67;23.08;;;;;;;1.20;100.00;101030.78;5050158;28;20028;-37
2022/12/11 01:25:29;;;;;;;43.92;22.80;;;;;;;1.17;100.00;101036.31;5049733;28;20094;-39
2022/12/11 01:27:55;;;;;;;46.00;23.25;;;;;;;1.14;100.00;101032.09;5049073;28;20060;-36
2022/12/11 01:30:22;;;;;;;44.67;22.20;;;;;;;1.09;100.00;101037.72;5064407;28;20108;-39
2022/12/11 01:32:47;;;;;;;40.92;21.08;;;;;;;1.13;100.00;101045.44;5070377;28;20028;-36
2022/12/11 01:35:13;;;;;;;45.05;23.00;;;;;;;1.10;100.00;101052.66;5068998;28;20089;-36
2022/12/11 01:37:39;;;;;;;47.72;24.10;;;;;;;1.03;100.00;101046.16;5066788;28;20131;-37
2022/12/11 01:40:06;;;;;;;50.40;24.55;;;;;;;1.06;100.00;101056.50;5069225;28;20112;-36
2022/12/11 01:42:31;;;;;;;51.60;24.98;;;;;;;1.10;100.00;101063.25;5069121;28;20033;-37
2022/12/11 01:45:20;;;;;;;49.10;23.35;;;;;;;1.13;100.00;101056.03;5069227;28;20086;-37
2022/12/11 01:47:47;;;;;;;58.47;25.83;;;;;;;1.04;100.00;101053.13;5060434;28;20037;-36
2022/12/11 01:50:13;;;;;;;50.58;24.95;;;;;;;1.08;100.00;101048.47;5063073;28;20028;-36
2022/12/11 01:52:38;;;;;;;50.88;26.05;;;;;;;1.14;100.00;101047.16;5063350;28;20396;-39
2022/12/11 01:55:04;;;;;;;51.78;25.75;;;;;;;1.13;100.00;101045.44;5051101;28;20029;-39
2022/12/11 01:57:30;;;;;;;48.53;25.33;;;;;;;1.13;100.00;101035.69;5047711;28;20233;-36
2022/12/11 01:59:55;;;;;;;54.03;25.63;;;;;;;1.14;100.00;101039.19;5059664;28;20036;-38
2022/12/11 02:02:27;;;;;;;49.08;25.70;;;;;;;1.16;100.00;101039.91;5066467;28;20027;-39
2022/12/11 02:04:52;;;;;;;61.03;27.13;;;;;;;1.12;100.00;101033.16;5054312;28;20043;-38
2022/12/11 02:07:18;;;;;;;58.10;28.65;;;;;;;1.08;100.00;101038.69;5051114;28;20025;-37
2022/12/11 02:09:45;;;;;;;58.08;26.77;;;;;;;1.10;100.00;101034.09;5065555;28;20499;-38
2022/12/11 02:12:11;;;;;;;61.10;28.30;;;;;;;1.12;100.00;101025.22;5067658;28;20024;-38
2022/12/11 02:14:57;;;;;;;59.92;26.45;;;;;;;1.07;100.00;101029.03;5068248;28;20035;-37
2022/12/11 02:17:58;;;;;;;64.28;28.85;;;;;;;1.08;100.00;101029.91;5068821;28;20039;-36
2022/12/11 02:20:38;;;;;;;66.15;28.02;;;;;;;1.14;100.00;101029.44;5046368;28;20037;-36
2022/12/11 02:23:26;;;;;;;59.33;27.70;;;;;;;1.18;100.00;101032.69;5047774;28;20032;-39
2022/12/11 02:25:57;;;;;;;61.88;28.15;;;;;;;1.17;100.00;101036.31;5055185;28;20038;-36
2022/12/11 02:28:31;;;;;;;57.88;27.75;;;;;;;1.18;100.00;101032.69;5047385;28;20107;-37
2022/12/11 02:31:01;;;;;;;64.90;28.77;;;;;;;1.17;100.00;101028.34;5070328;28;20040;-36
2022/12/11 02:33:37;;;;;;;60.60;29.52;;;;;;;1.12;100.00;101025.22;5070317;28;20054;-37
2022/12/11 02:36:04;;;;;;;58.65;28.88;;;;;;;1.13;100.00;101025.06;5056266;28;20025;-36
2022/12/11 02:38:33;;;;;;;66.45;31.35;;;;;;;1.14;100.00;101026.78;5070941;28;20727;-37
2022/12/11 02:40:59;;;;;;;67.13;30.48;;;;;;;1.10;100.00;101026.16;5069355;28;20086;-39
2022/12/11 02:43:26;;;;;;;53.47;27.80;;;;;;;1.08;100.00;101016.66;5070391;28;20340;-38
2022/12/11 02:45:51;;;;;;;60.83;28.27;;;;;;;1.06;100.00;101021.22;5072266;28;20155;-40
2022/12/11 02:48:17;;;;;;;60.45;28.25;;;;;;;1.08;100.00;101014.84;5070951;28;20051;-38
2022/12/11 02:50:45;;;;;;;59.95;28.33;;;;;;;1.12;100.00;101017.25;5054436;28;20040;-36
2022/12/11 02:53:11;;;;;;;;;;;;;;;1.04;100.00;101020.47;5052869;28;20459;-38
2022/12/11 02:55:37;;;;;;;60.95;28.23;;;;;;;1.06;100.00;101011.47;5067630;28;20004;-38
2022/12/11 02:58:14;;;;;;;58.80;26.83;;;;;;;1.04;100.00;101005.41;5050917;28;20028;-37
2022/12/11 03:00:39;;;;;;;63.55;29.33;;;;;;;0.97;100.00;101009.50;5060417;28;20037;-39
2022/12/11 03:03:05;;;;;;;65.22;29.83;;;;;;;0.97;100.00;101003.34;5055720;28;20518;-36
2022/12/11 03:05:30;;;;;;;64.18;29.20;;;;;;;0.98;100.00;101000.59;5056561;28;20409;-38
2022/12/11 03:07:56;;;;;;;68.07;30.40;;;;;;;0.93;100.00;101002.75;5059586;28;20028;-36
2022/12/11 03:10:22;;;;;;;63.17;29.95;;;;;;;0.95;100.00;101006.13;5059089;28;20107;-36
2022/12/11 03:12:49;;;;;;;65.35;30.05;;;;;;;0.94;100.00;100996.47;5065175;28;20033;-39
2022/12/11 03:15:17;;;;;;;61.35;27.05;;;;;;;0.98;100.00;101000.59;5055375;28;20392;-37
2022/12/11 03:18:05;;;;;;;70.13;29.90;;;;;;;1.00;100.00;100998.69;5052041;28;20067;-37
2022/12/11 03:20:38;;;;;;;59.90;27.05;;;;;;;0.99;100.00;100993.47;5056866;28;20087;-37
2022/12/11 03:23:24;;;;;;;64.45;29.15;;;;;;;0.98;100.00;101000.59;5070584;28;20020;-36
2022/12/11 03:26:17;;;;;;;68.65;28.80;;;;;;;0.97;100.00;100998.06;5056631;28;20029;-37
2022/12/11 03:28:50;;;;;;;69.97;28.73;;;;;;;1.00;100.00;100992.50;5048821;28;20559;-36
2022/12/11 03:31:41;;;;;;;75.68;31.50;;;;;;;0.96;100.00;100988.41;5050290;28;20056;-36
2022/12/11 03:34:13;;;;;;;71.00;27.27;;;;;;;1.05;100.00;100983.28;5056320;28;20020;-36
2022/12/11 03:36:39;;;;;;;64.05;28.00;;;;;;;1.01;100.00;100986.28;5062528;28;20147;-37
2022/12/11 03:39:08;;;;;;;73.47;29.45;;;;;;;0.96;100.00;100993.72;5051651;28;20021;-38
2022/12/11 03:41:35;;;;;;;64.40;29.45;;;;;;;0.99;100.00;100983.72;5052075;28;20103;-37
2022/12/11 03:44:00;;;;;;;64.85;27.45;;;;;;;1.01;100.00;100989.75;5063364;28;20039;-38
2022/12/11 03:46:33;;;;;;;66.63;29.42;;;;;;;0.96;100.00;100981.31;5051693;28;20029;-38
2022/12/11 03:49:02;;;;;;;62.65;26.63;;;;;;;0.97;100.00;100975.03;5033826;28;20527;-37
2022/12/11 03:51:29;;;;;;;67.53;27.55;;;;;;;1.01;100.00;100981.81;5067797;28;20077;-39
2022/12/11 03:53:55;;;;;;;60.37;26.43;;;;;;;1.00;100.00;100979.25;5063675;28;20033;-37
2022/12/11 03:56:21;;;;;;;64.82;26.48;;;;;;;1.00;100.00;100980.13;5049860;28;20278;-39
2022/12/11 03:58:46;;;;;;;67.10;28.77;;;;;;;0.94;100.00;100977.94;5051004;28;20067;-37
2022/12/11 04:01:11;;;;;;;60.00;27.33;;;;;;;0.94;100.00;100977.94;5050834;28;20415;-36
2022/12/11 04:03:37;;;;;;;55.83;26.27;;;;;;;0.92;100.00;100973.69;5054269;28;20024;-37
2022/12/11 04:06:03;;;;;;;56.75;24.95;;;;;;;0.95;100.00;100971.69;5069460;28;20121;-38
2022/12/11 04:08:28;;;;;;;55.63;25.88;;;;;;;1.03;100.00;100966.63;5053746;28;20040;-39
2022/12/11 04:13:38;;;;;;;44.40;19.95;;;;;;;1.10;100.00;100957.22;5066438;28;20035;-39
2022/12/11 04:16:04;;;;;;;40.80;19.05;;;;;;;1.08;100.00;100959.19;5050559;28;20033;-36
2022/12/11 04:24:15;;;;;;;49.22;20.40;;;;;;;0.98;100.00;100944.94;5070212;28;20047;-37
2022/12/11 04:26:42;;;;;;;44.20;20.50;;;;;;;0.99;100.00;100946.63;5056289;28;20048;-36
2022/12/11 04:29:08;;;;;;;41.60;19.80;;;;;;;0.97;100.00;100951.19;5050758;28;20055;-38
2022/12/11 04:31:33;;;;;;;45.65;20.05;;;;;;;0.99;100.00;100951.91;5060565;28;20033;-39
2022/12/11 04:33:59;;;;;;;51.30;22.52;;;;;;;1.02;100.00;100950.84;5065975;28;20028;-38
2022/12/11 04:36:24;;;;;;;48.70;20.52;;;;;;;0.99;100.00;100951.91;5066897;28;20166;-39
2022/12/11 04:38:49;;;;;;;50.83;21.55;;;;;;;0.99;100.00;100954.56;5059185;28;20129;-37
2022/12/11 04:41:15;;;;;;;52.15;22.00;;;;;;;1.03;100.00;100961.34;5051876;28;20049;-39
2022/12/11 04:43:43;;;;;;;48.80;21.67;;;;;;;1.03;100.00;100958.69;5069375;28;20496;-36
2022/12/11 04:46:10;;;;;;;41.35;19.65;;;;;;;1.02;100.00;100954.31;5053135;28;20024;-39
2022/12/11 04:48:37;;;;;;;46.40;20.45;;;;;;;1.03;100.00;100957.84;5070362;28;20044;-38
2022/12/11 04:51:03;;;;;;;46.75;20.10;;;;;;;1.02;100.00;100954.31;5067927;28;20287;-38
2022/12/11 04:53:28;;;;;;;42.63;18.95;;;;;;;1.03;100.00;100950.75;5070372;28;20383;-39
2022/12/11 04:55:53;;;;;;;45.15;20.80;;;;;;;1.02;100.00;100943.72;5053209;28;20479;-37
2022/12/11 04:58:19;;;;;;;39.97;19.63;;;;;;;1.05;100.00;100948.81;5063153;28;20433;-38
2022/12/11 05:00:45;;;;;;;46.10;20.15;;;;;;;1.10;100.00;100946.63;5062582;28;20033;-37
2022/12/11 05:03:10;;;;;;;42.50;19.55;;;;;;;1.10;100.00;100945.78;5052758;28;20042;-39
2022/12/11 05:05:36;;;;;;;51.30;21.20;;;;;;;1.05;100.00;100950.59;5051529;28;20499;-39
2022/12/11 05:08:01;;;;;;;47.42;21.63;;;;;;;0.99;100.00;100949.28;5069963;28;20479;-37
2022/12/11 05:10:26;;;;;;;45.83;20.17;;;;;;;1.01;100.00;100950.00;5070091;28;20181;-38
2022/12/11 05:12:52;;;;;;;41.13;18.40;;;;;;;1.00;100.00;100950.97;5068783;28;20021;-40
2022/12/11 05:15:17;;;;;;;43.58;19.80;;;;;;;0.97;100.00;100945.88;5053027;28;20495;-40
2022/12/11 05:17:42;;;;;;;41.58;18.92;;;;;;;0.97;100.00;100939.75;5068222;28;20107;-40
2022/12/11 05:20:09;;;;;;;43.97;19.70;;;;;;;0.99;100.00;100943.13;5068354;28;20048;-38
2022/12/11 05:22:34;;;;;;;43.15;20.40;;;;;;;0.95;100.00;100934.59;5069807;28;20024;-38
2022/12/11 05:25:00;;;;;;;36.72;17.98;;;;;;;0.96;100.00;100932.78;5066877;28;20021;-38
2022/12/11 05:27:25;;;;;;;38.55;17.90;;;;;;;0.97;100.00;100940.59;5054790;28;20072;-39
2022/12/11 05:29:51;;;;;;;36.22;18.33;;;;;;;0.97;100.00;100935.28;5050045;28;20025;-40
2022/12/11 05:32:16;;;;;;;47.28;18.90;;;;;;;1.05;100.00;100932.91;5055550;28;20029;-40
2022/12/11 05:34:41;;;;;;;36.95;17.20;;;;;;;1.03;100.00;100924.22;5061428;28;20120;-40
2022/12/11 05:37:07;;;;;;;38.28;18.27;;;;;;;1.05;100.00;100919.66;5050113;28;20404;-37
2022/12/11 05:39:33;;;;;;;38.38;18.73;;;;;;;1.01;100.00;100920.00;5049565;28;20067;-37
2022/12/11 05:41:58;;;;;;;37.30;17.35;;;;;;;1.00;100.00;100919.19;5050779;28;20104;-37
2022/12/11 05:44:24;;;;;;;35.53;17.98;;;;;;;1.00;100.00;100923.59;5063593;28;20051;-39
2022/12/11 05:46:49;;;;;;;43.67;18.30;;;;;;;0.99;100.00;100922.78;5058700;28;20479;-37
2022/12/11 05:49:14;;;;;;;39.38;18.17;;;;;;;1.07;100.00;100924.84;5048969;28;20029;-36
2022/12/11 05:51:40;;;;;;;34.67;17.77;;;;;;;1.08;100.00;100922.06;5059933;28;20082;-37
2022/12/11 05:54:06;;;;;;;35.03;18.15;;;;;;;1.12;100.00;100919.19;5055455;28;20031;-37
2022/12/11 05:56:33;;;;;;;37.95;18.48;;;;;;;1.06;100.00;100915.19;5046174;28;20535;-37
2022/12/11 05:59:00;;;;;;;39.15;18.35;;;;;;;1.05;100.00;100922.31;5047843;28;20071;-39
2022/12/11 06:01:28;;;;;;;33.65;16.85;;;;;;;1.00;100.00;100924.47;5047965;28;20035;-38
2022/12/11 06:03:54;;;;;;;35.83;18.00;;;;;;;0.97;100.00;100924.69;5062193;28;20302;-37
2022/12/11 06:06:19;;;;;;;39.58;18.52;;;;;;;0.94;100.00;100927.56;5064676;28;20089;-39
2022/12/11 06:08:45;;;;;;;42.45;18.38;;;;;;;0.90;100.00;100926.13;5067140;28;20032;-37
2022/12/11 06:11:13;;;;;;;44.60;18.33;;;;;;;0.92;100.00;100933.94;5051984;28;20120;-38
2022/12/11 06:13:39;;;;;;;38.72;18.13;;;;;;;0.92;100.00;100933.94;5059281;28;20033;-37
2022/12/11 06:16:06;;;;;;;42.63;18.77;;;;;;;0.90;100.00;100935.91;5068329;28;20045;-38
2022/12/11 06:18:35;;;;;;;44.22;19.48;;;;;;;0.90;100.00;100931.44;5051698;28;20036;-39
2022/12/11 06:21:00;;;;;;;41.10;19.15;;;;;;;0.86;100.00;100937.91;5036284;28;20423;-38
2022/12/11 06:23:25;;;;;;;39.08;19.02;;;;;;;0.87;100.00;100939.63;5059963;28;20033;-40
2022/12/11 06:25:51;;;;;;;44.75;18.23;;;;;;;0.86;100.00;100932.63;5063144;28;20490;-38
2022/12/11 06:28:16;;;;;;;43.45;18.70;;;;;;;0.88;100.00;100936.00;5051295;28;20514;-37
2022/12/11 06:30:41;;;;;;;40.88;18.77;;;;;;;0.89;100.00;100942.97;5083035;28;20114;-36
2022/12/11 06:33:08;;;;;;;40.40;18.20;;;;;;;0.91;100.00;100937.56;5054187;28;20037;-39
2022/12/11 06:35:33;;;;;;;41.85;18.83;;;;;;;0.90;100.00;100928.78;5050154;28;20037;-38
2022/12/11 06:37:58;;;;;;;40.75;19.25;;;;;;;0.91;100.00;100933.13;5064797;28;20043;-39
2022/12/11 06:40:24;;;;;;;40.65;17.77;;;;;;;0.89;100.00;100927.09;5071797;28;20025;-37
2022/12/11 06:42:49;;;;;;;39.25;17.58;;;;;;;0.88;100.00;100925.41;5063960;28;20039;-39
2022/12/11 06:45:14;;;;;;;39.92;18.10;;;;;;;0.88;100.00;100925.41;5062345;28;20541;-37
2022/12/11 06:47:40;;;;;;;38.42;18.25;;;;;;;0.92;100.00;100926.84;5052130;28;20033;-39
2022/12/11 06:50:05;;;;;;;41.00;17.90;;;;;;;0.99;100.00;100928.06;5051360;28;20059;-37
2022/12/11 06:52:31;;;;;;;38.78;18.13;;;;;;;1.05;100.00;100924.97;5066270;28;20135;-37
2022/12/11 06:54:56;;;;;;;43.50;19.20;;;;;;;1.02;100.00;100927.00;5051839;28;20040;-38
2022/12/11 06:57:22;;;;;;;40.05;19.00;;;;;;;1.04;100.00;100925.91;5051241;28;20031;-35
2022/12/11 06:59:47;;;;;;;40.90;18.38;;;;;;;1.02;100.00;100922.53;5050839;28;20518;-38
2022/12/11 07:02:17;;;;;;;39.55;18.25;;;;;;;1.02;100.00;100919.03;5050805;28;20086;-36
2022/12/11 07:04:43;;;;;;;40.03;18.10;;;;;;;0.95;100.00;100920.47;5049576;28;20116;-36
2022/12/11 07:07:09;;;;;;;43.20;20.38;;;;;;;0.83;100.00;100912.50;5049392;28;20120;-38
2022/12/11 07:09:36;;;;;;;45.80;20.50;;;;;;;0.74;100.00;100922.94;5058894;28;20552;-38
2022/12/11 07:12:02;;;;;;;46.67;19.85;;;;;;;0.71;100.00;100920.53;5070556;28;20135;-37
2022/12/11 07:14:29;;;;;;;42.85;18.73;;;;;;;0.63;100.00;100921.97;5068487;28;20052;-37
2022/12/11 07:16:54;;;;;;;45.13;19.55;;;;;;;0.59;100.00;100920.50;5068325;28;20071;-37
2022/12/11 07:19:20;;;;;;;41.97;18.65;;;;;;;0.55;100.00;100915.56;5069229;28;20068;-39
2022/12/11 07:21:45;;;;;;;41.92;18.20;;;;;;;0.50;100.00;100921.22;5071404;28;20321;-39
2022/12/11 07:24:10;;;;;;;43.13;19.23;;;;;;;0.47;100.00;100916.13;5071306;28;20074;-37
2022/12/11 07:26:36;;;;;;;45.45;19.10;;;;;;;0.42;100.00;100926.22;5070531;28;21030;-37
2022/12/11 07:29:01;;;;;;;47.20;19.08;;;;;;;0.40;100.00;100923.69;5067887;28;20039;-36
2022/12/11 07:31:28;;;;;;;47.17;18.95;;;;;;;0.37;100.00;100929.22;5047740;28;20021;-38
2022/12/11 07:34:01;;;;;;;38.95;17.00;;;;;;;0.31;100.00;100931.47;5049315;28;20127;-38
2022/12/11 07:36:28;;;;;;;40.10;17.95;;;;;;;0.27;100.00;100930.03;5067742;28;20024;-37
2022/12/11 07:38:53;;;;;;;44.50;18.83;;;;;;;0.26;100.00;100929.16;5054600;28;20392;-37
2022/12/11 07:41:19;;;;;;;49.03;18.30;;;;;;;0.19;100.00;100934.06;5049884;28;20029;-39
2022/12/11 07:43:45;;;;;;;49.75;18.55;;;;;;;0.24;100.00;100941.69;5049821;28;20032;-40
2022/12/11 07:46:13;;;;;;;45.42;18.02;;;;;;;0.26;100.00;100944.19;5049410;28;20029;-40
2022/12/11 07:48:40;;;;;;;49.40;17.77;;;;;;;0.22;100.00;100943.59;5053646;28;20119;-38
2022/12/11 07:51:26;;;;;;;47.17;18.17;;;;;;;0.22;100.00;100956.81;5050319;28;20590;-40
2022/12/11 07:53:54;;;;;;;46.67;18.05;;;;;;;0.19;100.00;100949.94;5053112;28;20033;-38
2022/12/11 07:56:20;;;;;;;46.40;18.33;;;;;;;0.20;100.00;100961.38;5054280;28;20423;-39
2022/12/11 07:58:46;;;;;;;42.63;17.02;;;;;;;0.22;100.00;100955.03;5050240;28;20029;-37
2022/12/11 08:01:12;;;;;;;42.97;17.05;;;;;;;0.26;100.00;100960.09;5049452;28;20024;-38
2022/12/11 08:03:38;;;;;;;46.95;18.63;;;;;;;0.27;100.00;100959.16;5049985;28;20029;-38
2022/12/11 08:06:03;;;;;;;40.22;17.50;;;;;;;0.30;100.00;100956.28;5053491;28;20424;-37
2022/12/11 08:08:29;;;;;;;34.90;16.83;;;;;;;0.33;100.00;100953.38;5049948;28;20072;-39
2022/12/11 08:10:54;;;;;;;41.40;16.48;;;;;;;0.33;100.00;100950.75;5057480;28;20021;-37
2022/12/11 08:13:19;;;;;;;38.75;16.92;;;;;;;0.35;100.00;100940.88;5059566;28;20036;-38
2022/12/11 08:15:45;;;;;;;34.08;15.63;;;;;;;0.33;100.00;100946.28;5069675;28;20028;-39
2022/12/11 08:18:10;;;;;;;33.88;15.45;;;;;;;0.32;100.00;100941.97;5067834;28;20143;-40
2022/12/11 08:20:38;;;;;;;33.55;15.30;;;;;;;0.36;100.00;100947.88;5071653;28;20483;-40
2022/12/11 08:23:03;;;;;;;33.17;15.88;;;;;;;0.34;100.00;100948.00;5059169;28;20115;-38
2022/12/11 08:25:28;;;;;;;34.20;15.52;;;;;;;0.33;100.00;100950.75;5059556;28;20108;-36
2022/12/11 08:27:54;;;;;;;31.67;15.00;;;;;;;0.36;100.00;100950.50;5064413;28;20412;-39
2022/12/11 08:30:19;;;;;;;30.05;13.77;;;;;;;0.36;100.00;100942.56;5052926;28;20025;-36
2022/12/11 08:32:44;;;;;;;29.08;13.88;;;;;;;0.38;100.00;100949.44;5066421;28;20039;-39
2022/12/11 08:35:10;;;;;;;30.42;14.20;;;;;;;0.42;100.00;100950.91;5067149;28;20024;-41
2022/12/11 08:37:35;;;;;;;30.00;14.02;;;;;;;0.45;100.00;100949.84;5066209;28;20077;-38
2022/12/11 08:40:00;;;;;;;27.85;14.27;;;;;;;0.50;100.00;100947.69;5059738;28;20029;-39
2022/12/11 08:42:26;;;;;;;30.80;14.68;;;;;;;0.55;100.00;100955.28;5060702;28;20349;-38
2022/12/11 08:44:51;;;;;;;31.58;14.90;;;;;;;0.62;100.00;100948.56;5050494;28;20456;-39
2022/12/11 08:47:17;;;;;;;30.80;14.40;;;;;;;0.74;100.00;100950.31;5059785;28;20050;-36
2022/12/11 08:49:42;;;;;;;29.45;13.30;;;;;;;0.73;100.00;100955.72;5062334;28;20078;-39
2022/12/11 08:52:07;;;;;;;33.58;14.45;;;;;;;0.75;100.00;100954.63;5055039;28;20504;-36
2022/12/11 08:54:33;;;;;;;29.02;14.43;;;;;;;0.81;100.00;100955.97;5061658;28;20051;-38
2022/12/11 08:56:58;;;;;;;32.80;14.35;;;;;;;0.87;100.00;100956.38;5050394;28;20167;-39
2022/12/11 08:59:24;;;;;;;31.98;15.57;;;;;;;0.90;100.00;100949.16;5050950;28;20029;-36
2022/12/11 09:01:50;;;;;;;31.83;14.50;;;;;;;1.00;100.00;100958.06;5059332;28;20553;-37
2022/12/11 09:04:15;;;;;;;30.58;14.63;;;;;;;1.08;100.00;100948.56;5062323;28;20028;-36
2022/12/11 09:06:41;;;;;;;31.40;14.45;;;;;;;1.18;100.00;100946.03;5049241;28;20025;-39
2022/12/11 09:09:06;;;;;;;30.63;14.80;;;;;;;1.26;100.00;100950.75;5057473;28;20443;-38
2022/12/11 09:11:34;;;;;;;32.08;14.82;;;;;;;1.37;100.00;100947.25;5069756;28;20033;-36
2022/12/11 09:14:01;;;;;;;28.40;14.30;;;;;;;1.54;100.00;100944.97;5056344;28;20495;-37
2022/12/11 09:16:26;;;;;;;28.52;15.25;;;;;;;1.57;100.00;100937.75;5063920;28;20060;-38
2022/12/11 09:18:53;;;;;;;31.75;15.13;;;;;;;1.52;100.00;100931.00;5069558;28;20041;-39
2022/12/11 09:21:20;;;;;;;31.13;14.85;;;;;;;1.63;100.00;100938.09;5053555;28;20044;-38
2022/12/11 09:23:46;;;;;;;35.20;17.00;;;;;;;1.51;100.00;100933.78;5069166;28;20029;-38
2022/12/11 09:26:14;;;;;;;35.17;15.93;;;;;;;1.50;100.00;100930.28;5054780;28;20036;-37
2022/12/11 09:28:40;;;;;;;39.08;16.63;;;;;;;1.56;100.00;100936.06;5065786;28;20116;-39
2022/12/11 09:31:10;;;;;;;36.97;15.80;;;;;;;1.52;100.00;100936.28;5067209;28;20028;-39
2022/12/11 09:33:36;;;;;;;37.38;17.85;;;;;;;1.47;100.00;100933.16;5060267;28;20069;-38
2022/12/11 09:36:02;;;;;;;38.95;17.65;;;;;;;1.46;100.00;100935.94;5056801;28;20039;-39
2022/12/11 09:38:28;;;;;;;37.05;17.13;;;;;;;1.47;100.00;100933.16;5061125;28;20159;-39
2022/12/11 09:40:54;;;;;;;40.25;19.65;;;;;;;1.53;100.00;100934.50;5062645;28;20052;-37
2022/12/11 09:43:28;;;;;;;45.88;18.90;;;;;;;1.51;100.00;100934.63;5070655;28;20063;-39
2022/12/11 09:45:55;;;;;;;44.03;18.17;;;;;;;1.58;100.00;100944.72;5058405;28;20044;-40
2022/12/11 09:48:22;;;;;;;43.83;19.27;;;;;;;1.61;100.00;100939.22;5053961;28;20253;-39
2022/12/11 09:50:50;;;;;;;40.30;18.15;;;;;;;1.75;100.00;100941.59;5049885;28;20017;-37
2022/12/11 09:53:25;;;;;;;38.47;18.15;;;;;;;1.92;100.00;100942.88;5048439;28;20064;-39
2022/12/11 09:56:08;;;;;;;37.47;18.52;;;;;;;1.94;100.00;100939.13;5059038;28;20036;-39
2022/12/11 09:58:36;;;;;;;43.65;19.13;;;;;;;2.00;100.00;100939.63;5069588;28;20104;-37
2022/12/11 10:01:02;;;;;;;;;;;;;;;1.90;100.00;100940.38;5059834;28;20035;-37
2022/12/11 10:03:33;;;;;;;43.15;19.13;;;;;;;1.98;100.00;100937.94;5048709;28;19908;-38
2022/12/11 10:06:06;;;;;;;40.95;19.02;;;;;;;1.90;100.00;100940.38;5053348;28;20028;-35
2022/12/11 10:08:39;;;;;;;41.90;20.00;;;;;;;1.81;100.00;100935.78;5058494;28;20036;-35
2022/12/11 10:11:21;;;;;;;45.35;19.48;;;;;;;1.91;100.00;100939.38;5066304;28;20033;-37
2022/12/11 10:14:01;;;;;;;43.85;19.98;;;;;;;1.83;100.00;100933.84;5053995;28;20025;-39
2022/12/11 10:16:49;;;;;;;39.45;18.95;;;;;;;1.74;100.00;100939.91;5069484;28;20047;-38
2022/12/11 10:19:16;;;;;;;;;;;;;;;1.64;100.00;100931.84;5057332;28;20032;-39
2022/12/11 10:21:42;;;;;;;40.67;18.30;;;;;;;1.86;100.00;100936.25;5082064;28;19924;-36
2022/12/11 10:24:21;;;;;;;38.20;17.90;;;;;;;1.94;100.00;100931.19;5068064;28;20024;-36
2022/12/11 10:26:47;;;;;;;39.15;17.83;;;;;;;1.80;100.00;100923.50;5068392;28;20098;-37
2022/12/11 10:29:14;;;;;;;38.97;18.27;;;;;;;1.86;100.00;100922.16;5069419;28;20448;-38
2022/12/11 10:31:49;;;;;;;39.35;18.10;;;;;;;1.82;100.00;100918.06;5050794;28;20492;-37
2022/12/11 10:34:22;;;;;;;39.15;18.42;;;;;;;1.89;100.00;100920.09;5061416;28;20035;-37
2022/12/11 10:36:48;;;;;;;42.90;18.38;;;;;;;1.91;100.00;100914.66;5069084;28;20528;-38
2022/12/11 10:39:16;;;;;;;43.25;20.48;;;;;;;1.93;100.00;100923.34;5070081;28;20028;-37
2022/12/11 10:41:44;;;;;;;39.70;18.40;;;;;;;2.01;100.00;100909.47;5063417;28;20029;-39
2022/12/11 10:44:14;;;;;;;40.00;18.55;;;;;;;2.16;100.00;100913.53;5061737;28;20452;-39
2022/12/11 10:46:39;;;;;;;40.75;19.70;;;;;;;2.00;100.00;100905.94;5061297;28;20059;-38
2022/12/11 10:49:04;;;;;;;43.47;18.10;;;;;;;2.14;100.00;100904.84;5056966;28;20487;-37
2022/12/11 10:51:30;;;;;;;44.42;18.85;;;;;;;2.32;100.00;100903.31;5054431;28;20084;-38
2022/12/11 10:54:00;;;;;;;42.72;19.67;;;;;;;2.21;100.00;100900.69;5053075;28;20498;-37
2022/12/11 10:56:27;;;;;;;47.92;20.88;;;;;;;2.14;100.00;100897.72;5069327;28;20031;-37
2022/12/11 10:58:54;;;;;;;51.85;22.38;;;;;;;2.30;100.00;100899.94;5053527;28;20531;-37
2022/12/11 11:01:22;;;;;;;46.45;21.95;;;;;;;2.23;100.00;100901.41;5052302;28;20040;-37
2022/12/11 11:04:14;;;;;;;47.75;21.40;;;;;;;1.96;100.00;100897.41;5053526;28;20036;-40
2022/12/11 11:06:39;;;;;;;51.65;23.42;;;;;;;2.02;100.00;100905.81;5053038;28;20032;-38
2022/12/11 11:09:29;;;;;;;58.40;24.08;;;;;;;2.03;100.00;100899.53;5053049;28;20035;-36
2022/12/11 11:11:54;;;;;;;53.30;22.77;;;;;;;2.08;100.00;100894.69;5053394;28;20041;-37
2022/12/11 11:14:21;;;;;;;52.67;23.40;;;;;;;2.21;100.00;100898.03;5053557;28;20100;-37
2022/12/11 11:16:48;;;;;;;50.20;23.50;;;;;;;2.22;100.00;100889.13;5053089;28;20078;-36
2022/12/11 11:19:34;;;;;;;51.15;22.88;;;;;;;2.13;100.00;100888.06;5051285;28;20029;-36